createdAt,value
2019-01-20T00:03:45.303Z,89.90
2019-01-20T00:08:49.078Z,90.10
2019-01-20T00:13:52.863Z,90.10
2019-01-20T00:18:56.701Z,89.70
2019-01-20T00:24:00.522Z,90.00
2019-01-20T00:29:06.802Z,90.40
2019-01-20T00:34:10.577Z,90.10
2019-01-20T00:39:14.515Z,90.00
2019-01-20T00:44:18.375Z,90.00
2019-01-20T00:49:22.135Z,89.90
2019-01-20T00:54:25.981Z,89.70
2019-01-20T00:59:29.932Z,90.50
2019-01-20T01:04:33.782Z,90.10
2019-01-20T01:09:37.525Z,90.10
2019-01-20T01:14:42.228Z,90.30
2019-01-20T01:19:46.007Z,90.40
2019-01-20T01:24:50.198Z,90.80
2019-01-20T01:29:54.164Z,90.80
2019-01-20T01:34:58.355Z,91.00
2019-01-20T01:40:02.048Z,92.00
2019-01-20T01:45:08.123Z,91.50
2019-01-20T01:50:13.056Z,91.30
2019-01-20T01:55:16.934Z,91.30
2019-01-20T02:00:22.691Z,91.40
2019-01-20T02:05:26.680Z,91.50
2019-01-20T02:10:30.407Z,91.60
2019-01-20T02:15:34.497Z,91.70
2019-01-20T02:20:38.482Z,91.90
2019-01-20T02:25:42.243Z,91.80
2019-01-20T02:30:46.030Z,92.20
2019-01-20T02:35:49.769Z,92.30
2019-01-20T02:40:54.014Z,92.10
2019-01-20T02:45:57.785Z,92.00
2019-01-20T02:51:01.755Z,92.10
2019-01-20T02:56:05.708Z,92.70
2019-01-20T03:01:09.824Z,93.60
2019-01-20T03:06:13.912Z,94.20
2019-01-20T03:11:17.670Z,94.30
2019-01-20T03:16:21.581Z,94.70
2019-01-20T03:21:25.373Z,94.90
2019-01-20T03:26:29.452Z,94.60
2019-01-20T03:31:33.199Z,94.00
2019-01-20T03:36:37.025Z,94.70
2019-01-20T03:41:41.083Z,94.80
2019-01-20T03:46:44.953Z,95.20
2019-01-20T03:51:48.663Z,95.20
2019-01-20T03:56:52.773Z,94.90
2019-01-20T04:01:56.571Z,94.40
2019-01-20T04:07:00.738Z,94.90
2019-01-20T04:12:04.746Z,95.60
2019-01-20T04:17:08.853Z,96.00
2019-01-20T04:22:12.541Z,96.70
2019-01-20T04:27:16.287Z,97.00
2019-01-20T04:32:20.302Z,97.20
2019-01-20T04:37:23.984Z,97.50
2019-01-20T04:42:29.279Z,97.50
2019-01-20T04:47:33.851Z,97.30
2019-01-20T04:52:37.611Z,96.80
2019-01-20T04:57:41.973Z,96.80
2019-01-20T05:02:45.878Z,97.10
2019-01-20T05:07:49.588Z,97.50
2019-01-20T05:12:53.408Z,98.00
2019-01-20T05:17:57.340Z,98.20
2019-01-20T05:23:01.269Z,97.90
2019-01-20T05:28:05.020Z,98.00
2019-01-20T05:33:09.092Z,97.90
2019-01-20T05:38:12.884Z,98.30
2019-01-20T05:43:16.716Z,98.50
2019-01-20T05:48:20.517Z,98.80
2019-01-20T05:53:24.263Z,99.10
2019-01-20T05:58:28.232Z,99.10
2019-01-20T06:03:31.909Z,99.40
2019-01-20T06:08:35.591Z,99.30
2019-01-20T06:13:39.304Z,99.40
2019-01-20T06:18:43.273Z,99.60
2019-01-20T06:23:47.006Z,99.50
2019-01-20T06:28:50.812Z,99.70
2019-01-20T06:33:54.552Z,99.70
2019-01-20T06:38:58.493Z,99.90
2019-01-20T06:44:02.180Z,99.90
2019-01-20T06:49:05.903Z,99.90
2019-01-20T06:54:09.809Z,99.90
2019-01-20T06:59:13.517Z,99.90
2019-01-20T07:04:17.235Z,99.90
2019-01-20T07:09:21.249Z,99.90
2019-01-20T07:14:25.020Z,99.90
2019-01-20T07:19:28.982Z,99.90
2019-01-20T07:24:32.653Z,99.60
2019-01-20T07:29:36.557Z,99.20
2019-01-20T07:34:40.238Z,98.80
2019-01-20T07:39:43.951Z,97.90
2019-01-20T07:44:47.809Z,94.80
2019-01-20T07:49:51.484Z,90.60
2019-01-20T07:54:55.281Z,83.00
2019-01-20T07:59:58.957Z,75.70
2019-01-20T08:05:02.667Z,70.00
2019-01-20T08:10:09.953Z,65.70
2019-01-20T08:15:14.178Z,61.00
2019-01-20T08:20:19.241Z,55.90
2019-01-20T08:25:23.274Z,51.20
2019-01-20T08:30:27.646Z,49.80
2019-01-20T08:35:31.326Z,48.80
2019-01-20T08:40:35.031Z,52.20
2019-01-20T08:45:45.479Z,50.90
2019-01-20T08:50:49.419Z,45.20
2019-01-20T08:55:53.371Z,40.90
2019-01-20T09:00:57.048Z,38.10
2019-01-20T09:06:00.999Z,38.00
2019-01-20T09:11:04.955Z,35.90
2019-01-20T09:16:08.707Z,35.40
2019-01-20T09:21:12.400Z,31.90
2019-01-20T09:26:16.087Z,30.90
2019-01-20T09:31:19.789Z,29.50
2019-01-20T09:36:23.793Z,28.40
2019-01-20T09:41:27.535Z,28.20
2019-01-20T09:46:31.312Z,28.60
2019-01-20T09:51:35.009Z,27.80
2019-01-20T09:56:39.219Z,27.30
2019-01-20T10:01:43.195Z,26.40
2019-01-20T10:06:47.041Z,25.10
2019-01-20T10:11:51.092Z,24.00
2019-01-20T10:16:54.773Z,23.90
2019-01-20T10:21:58.741Z,24.00
2019-01-20T10:27:02.637Z,24.60
2019-01-20T10:32:06.299Z,24.70
2019-01-20T10:37:10.223Z,24.70
2019-01-20T10:42:13.928Z,24.00
2019-01-20T10:47:17.875Z,23.90
2019-01-20T10:52:21.564Z,23.80
2019-01-20T10:57:25.569Z,24.30
2019-01-20T11:02:29.269Z,24.20
2019-01-20T11:07:33.617Z,22.90
2019-01-20T11:12:37.368Z,22.90
2019-01-20T11:17:41.060Z,22.80
2019-01-20T11:22:44.921Z,23.70
2019-01-20T11:27:48.832Z,23.70
2019-01-20T11:32:52.682Z,22.80
2019-01-20T11:37:56.535Z,22.20
2019-01-20T11:43:00.551Z,22.20
2019-01-20T11:48:04.677Z,23.20
2019-01-20T11:53:08.394Z,22.90
2019-01-20T11:58:12.074Z,22.90
2019-01-20T12:03:15.793Z,22.20
2019-01-20T12:08:19.481Z,22.20
2019-01-20T12:13:27.695Z,22.10
2019-01-20T12:18:31.682Z,23.20
2019-01-20T12:23:36.086Z,24.10
2019-01-20T12:28:40.537Z,23.60
2019-01-20T12:33:44.755Z,23.10
2019-01-20T12:38:48.719Z,23.20
2019-01-20T12:43:52.414Z,22.90
2019-01-20T12:48:56.120Z,22.70
2019-01-20T12:53:59.901Z,24.50
2019-01-20T12:59:04.772Z,25.70
2019-01-20T13:04:15.049Z,25.00
2019-01-20T13:09:18.921Z,24.60
2019-01-20T13:14:22.906Z,24.40
2019-01-20T13:19:26.860Z,23.20
2019-01-20T13:24:30.697Z,22.90
2019-01-20T13:29:50.849Z,25.00
2019-01-20T13:34:54.527Z,26.00
2019-01-20T13:40:16.843Z,28.80
2019-01-20T13:45:24.578Z,29.50
2019-01-20T13:50:28.520Z,29.70
2019-01-20T13:55:34.773Z,31.30
2019-01-20T14:00:38.535Z,33.70
2019-01-20T14:05:42.267Z,38.70
2019-01-20T14:10:46.079Z,40.80
2019-01-20T14:15:49.828Z,44.40
2019-01-20T14:20:53.803Z,47.20
2019-01-20T14:25:57.572Z,48.20
2019-01-20T14:31:01.882Z,49.90
2019-01-20T14:36:08.623Z,70.20
2019-01-20T14:41:13.210Z,80.60
2019-01-20T14:46:19.199Z,80.50
2019-01-20T14:51:23.591Z,78.40
2019-01-20T14:56:31.745Z,62.40
2019-01-20T15:01:35.726Z,59.10
2019-01-20T15:06:39.791Z,61.50
2019-01-20T15:11:43.695Z,63.60
2019-01-20T15:16:47.609Z,65.20
2019-01-20T15:21:51.644Z,66.30
2019-01-20T15:26:55.348Z,69.00
2019-01-20T15:31:59.399Z,69.80
2019-01-20T15:37:03.100Z,70.10
2019-01-20T15:42:06.867Z,71.10
2019-01-20T15:47:11.011Z,72.40
2019-01-20T15:52:15.045Z,73.70
2019-01-20T15:57:18.825Z,74.80
2019-01-20T16:02:22.625Z,75.20
2019-01-20T16:07:26.690Z,77.00
2019-01-20T16:12:30.421Z,77.20
2019-01-20T16:17:34.114Z,77.60
2019-01-20T16:22:38.097Z,78.90
2019-01-20T16:27:42.992Z,80.90
2019-01-20T16:32:46.873Z,80.80
2019-01-20T16:37:50.812Z,81.50
2019-01-20T16:42:56.601Z,82.40
2019-01-20T16:48:00.341Z,82.50
2019-01-20T16:53:04.294Z,85.70
2019-01-20T16:58:08.103Z,84.20
2019-01-20T17:03:11.884Z,85.10
2019-01-20T17:08:15.896Z,85.40
2019-01-20T17:13:19.661Z,85.50
2019-01-20T17:18:23.735Z,86.90
2019-01-20T17:23:27.518Z,87.60
2019-01-20T17:28:31.550Z,87.60
2019-01-20T17:33:35.261Z,87.40
2019-01-20T17:38:38.915Z,87.60
2019-01-20T17:43:42.605Z,86.60
2019-01-20T17:48:46.271Z,88.20
2019-01-20T17:53:50.176Z,89.60
2019-01-20T17:58:54.275Z,89.50
2019-01-20T18:03:59.323Z,89.50
2019-01-20T18:09:03.653Z,89.40
2019-01-20T18:14:07.408Z,90.10
2019-01-20T18:19:11.109Z,90.90
2019-01-20T18:24:21.197Z,91.00
2019-01-20T18:29:25.203Z,91.30
2019-01-20T18:34:28.879Z,91.30
2019-01-20T18:39:32.572Z,91.50
2019-01-20T18:44:36.355Z,91.80
2019-01-20T18:49:40.059Z,91.50
2019-01-20T18:54:43.809Z,91.50
2019-01-20T18:59:47.532Z,92.10
2019-01-20T19:04:51.199Z,92.60
2019-01-20T19:09:54.912Z,93.40
2019-01-20T19:14:58.642Z,93.60
2019-01-20T19:20:02.312Z,93.80
2019-01-20T19:25:06.645Z,94.00
2019-01-20T19:30:21.627Z,94.20
2019-01-20T19:35:25.653Z,94.30
2019-01-20T19:40:29.327Z,94.60
2019-01-20T19:45:33.067Z,95.00
2019-01-20T19:50:37.079Z,95.50
2019-01-20T19:55:40.999Z,96.00
2019-01-20T20:00:44.704Z,95.90
2019-01-20T20:05:48.392Z,96.10
2019-01-20T20:10:52.117Z,96.40
2019-01-20T20:15:56.165Z,96.40
2019-01-20T20:20:59.886Z,96.30
2019-01-20T20:26:03.678Z,96.50
2019-01-20T20:31:07.430Z,96.50
2019-01-20T20:36:11.233Z,96.40
2019-01-20T20:41:14.976Z,96.00
2019-01-20T20:46:18.682Z,96.00
2019-01-20T20:51:22.361Z,95.30
2019-01-20T20:56:26.050Z,95.40
2019-01-20T21:01:29.941Z,95.80
2019-01-20T21:06:33.623Z,96.50
2019-01-20T21:11:37.635Z,96.50
2019-01-20T21:16:41.694Z,97.00
2019-01-20T21:21:45.554Z,97.20
2019-01-20T21:26:49.532Z,96.90
2019-01-20T21:31:53.396Z,97.50
2019-01-20T21:36:59.468Z,97.30
2019-01-20T21:42:03.376Z,97.20
2019-01-20T21:47:07.460Z,97.20
2019-01-20T21:52:11.615Z,97.60
2019-01-20T21:57:15.986Z,97.60
2019-01-20T22:02:20.040Z,98.10
2019-01-20T22:07:24.156Z,98.10
2019-01-20T22:12:28.382Z,97.90
2019-01-20T22:17:32.671Z,97.90
2019-01-20T22:22:36.418Z,97.40
2019-01-20T22:27:40.264Z,97.20
2019-01-20T22:32:44.964Z,96.70
2019-01-20T22:37:48.832Z,96.70
2019-01-20T22:42:52.941Z,97.00
2019-01-20T22:47:56.826Z,96.60
2019-01-20T22:53:00.748Z,96.40
2019-01-20T22:58:04.684Z,96.60
2019-01-20T23:03:08.804Z,96.80
2019-01-20T23:08:12.987Z,96.40
2019-01-20T23:13:16.881Z,96.30
2019-01-20T23:18:20.950Z,97.00
2019-01-20T23:23:24.740Z,97.10
2019-01-20T23:28:28.789Z,97.10
2019-01-20T23:33:32.514Z,97.00
2019-01-20T23:38:36.572Z,96.40
2019-01-20T23:43:40.307Z,96.50
2019-01-20T23:48:44.348Z,96.60
2019-01-20T23:53:48.132Z,96.20
2019-01-20T23:58:51.801Z,96.30
